Flight Track Log - Related Links

Times and Time Zones

All times are in EDT time to prevent confusion due to time zone crossing. See the JA-786A flight status page for this flight to view local times or setup timezone preferences in your user account.

Time Position Orientation Groundspeed Altitude Reporting Facility
EDT Latitude Longitude Course Direction KTS MPH feet Rate Location/Type
Sun 10:26:42 PM 35.7190 140.4090 150° Southeast 193 222 2,400  Level FlightAware ADS-B
Sun 10:27:12 PM 35.6950 140.4260 150° Southeast 193 222 3,500 1,867 Climbing FlightAware ADS-B
Sun 10:27:27 PM 35.6830 140.4340 152° Southeast 209 241 3,800 1,050 Climbing FlightAware ADS-B
Sun 10:27:52 PM 35.6600 140.4500 151° Southeast 244 281 4,200 1,527 Climbing FlightAware ADS-B
Sun 10:28:22 PM 35.6290 140.4730 149° Southeast 269 310 5,200 1,745 Climbing FlightAware ADS-B
Sun 10:28:47 PM 35.6000 140.4940 150° Southeast 297 342 5,800 1,920 Climbing FlightAware ADS-B
Sun 10:29:12 PM 35.5710 140.5150 149° Southeast 305 351 6,800 2,533 Climbing FlightAware ADS-B
Sun 10:29:32 PM 35.5490 140.5380 140° Southeast 315 362 7,700 2,914 Climbing FlightAware ADS-B
Sun 10:29:47 PM 35.5380 140.5620 119° Southeast 319 367 8,500 2,850 Climbing FlightAware ADS-B
Sun 10:30:12 PM 35.5320 140.6060 100° East 328 377 9,600 2,057 Climbing FlightAware ADS-B
Sun 10:30:57 PM 35.5260 140.6900 95° East 360 414 10,900 1,482 Climbing FlightAware ADS-B
Sun 10:31:37 PM 35.5190 140.7750 96° East 397 457 11,700 1,835 Climbing FlightAware ADS-B
Sun 10:32:22 PM 35.5200 140.8810 89° East 415 478 13,500 2,471 Climbing FlightAware ADS-B
Sun 10:33:02 PM 35.5420 140.9740 74° East 423 487 15,200 2,400 Climbing FlightAware ADS-B
Sun 10:33:42 PM 35.5640 141.0690 74° East 429 494 16,700 2,188 Climbing FlightAware ADS-B
Sun 10:34:27 PM 35.5960 141.1750 70° East 441 507 18,300 2,040 Climbing FlightAware ADS-B
Sun 10:35:22 PM 35.6600 141.2760 52° Northeast 448 516 20,100 1,768 Climbing FlightAware ADS-B
Sun 10:36:02 PM 35.7080 141.3480 51° Northeast 457 526 21,100 1,800 Climbing FlightAware ADS-B
Sun 10:36:42 PM 35.7680 141.4380 51° Northeast 467 537 22,500 1,976 Climbing FlightAware ADS-B
Sun 10:37:27 PM 35.8330 141.5350 50° Northeast 469 540 23,900 1,624 Climbing FlightAware ADS-B
Sun 10:38:07 PM 35.8870 141.6170 51° Northeast 484 557 24,800 1,412 Climbing FlightAware ADS-B
Sun 10:38:52 PM 35.9490 141.7100 51° Northeast 490 564 25,900 1,500 Climbing FlightAware ADS-B
Sun 10:39:27 PM 36.0050 141.7950 51° Northeast 500 575 26,800 1,482 Climbing FlightAware ADS-B
Sun 10:40:17 PM 36.0800 141.9090 51° Northeast 506 582 28,000 1,267 Climbing FlightAware ADS-B
Sun 10:40:57 PM 36.1340 141.9910 51° Northeast 510 587 28,700 727 Climbing FlightAware ADS-B
Sun 10:43:00 PM 36.3891 142.1492 27° Northeast  Level Estimated
Sun 10:43:02 PM 36.3200 142.2770 27° Northeast 516 594 30,000  Level FlightAware ADS-B
Sun 10:43:42 PM 36.3710 142.3550 51° Northeast 516 594 30,000  Level FlightAware ADS-B
Sun 10:44:17 PM 36.4330 142.4500 51° Northeast 521 600 30,000  Level FlightAware ADS-B
Sun 10:45:02 PM 36.5010 142.5550 51° Northeast 521 600 30,000  Level FlightAware ADS-B
Sun 10:45:52 PM 36.5660 142.6540 51° Northeast 521 600 30,000  Level FlightAware ADS-B
Sun 10:46:32 PM 36.6180 142.7340 51° Northeast 521 600 30,000  Level FlightAware ADS-B
Sun 10:47:12 PM 36.6690 142.8130 51° Northeast 521 600 30,000  Level FlightAware ADS-B
Sun 10:47:52 PM 36.7210 142.8930 51° Northeast 521 600 30,000  Level FlightAware ADS-B
Sun 10:48:32 PM 36.7720 142.9720 51° Northeast 521 600 30,000 Level FlightAware ADS-B
Sun 10:51:00 PM 37.0772 143.1682 27° Northeast  Level Estimated
Sun 10:52:00 PM 37.2008 143.2482 27° Northeast  Level Estimated
Sun 10:53:00 PM 37.3244 143.3285 27° Northeast  Level Estimated
Sun 10:54:00 PM 37.4479 143.4090 27° Northeast  Level Estimated
Sun 10:55:00 PM 37.5714 143.4898 27° Northeast  Level Estimated
Sun 10:56:00 PM 37.6948 143.5708 27° Northeast  Level Estimated
Sun 10:57:00 PM 37.8182 143.6521 28° Northeast  Level Estimated
Sun 10:58:00 PM 37.9415 143.7337 28° Northeast  Level Estimated
Sun 10:59:00 PM 38.0648 143.8156 28° Northeast  Level Estimated
Sun 11:00:00 PM 38.1880 143.8978 28° Northeast  Level Estimated
Sun 11:01:00 PM 38.3111 143.9802 28° Northeast  Level Estimated
Sun 11:02:00 PM 38.4342 144.0629 28° Northeast  Level Estimated
Sun 11:03:00 PM 38.5572 144.1459 28° Northeast  Level Estimated
Sun 11:04:00 PM 38.6801 144.2292 28° Northeast  Level Estimated
Sun 11:05:00 PM 38.8031 144.3127 28° Northeast  Level Estimated
Sun 11:06:00 PM 38.9259 144.3966 28° Northeast  Level Estimated
Sun 11:07:00 PM 39.0487 144.4807 28° Northeast  Level Estimated
Sun 11:08:00 PM 39.1714 144.5651 28° Northeast  Level Estimated
Sun 11:09:00 PM 39.2940 144.6499 28° Northeast  Level Estimated
Sun 11:10:00 PM 39.4166 144.7349 28° Northeast  Level Estimated
Sun 11:11:00 PM 39.5392 144.8202 28° Northeast  Level Estimated
Sun 11:12:00 PM 39.6617 144.9058 28° Northeast  Level Estimated
Sun 11:13:00 PM 39.7841 144.9918 28° Northeast  Level Estimated
Sun 11:14:00 PM 39.9064 145.0780 28° Northeast  Level Estimated
Sun 11:15:00 PM 40.0287 145.1645 28° Northeast  Level Estimated
Sun 11:16:00 PM 40.1509 145.2514 29° Northeast  Level Estimated
Sun 11:17:00 PM 40.2731 145.3386 29° Northeast  Level Estimated
Sun 11:18:00 PM 40.3952 145.4260 29° Northeast  Level Estimated
Sun 11:19:00 PM 40.5172 145.5138 29° Northeast  Level Estimated
Sun 11:20:00 PM 40.6391 145.6020 29° Northeast  Level Estimated
Sun 11:21:00 PM 40.7610 145.6904 29° Northeast  Level Estimated
Sun 11:22:00 PM 40.8828 145.7792 29° Northeast  Level Estimated
Sun 11:23:00 PM 41.0046 145.8683 29° Northeast  Level Estimated
Sun 11:24:00 PM 41.1263 145.9577 29° Northeast  Level Estimated
Sun 11:25:00 PM 41.2479 146.0475 29° Northeast  Level Estimated
Sun 11:26:00 PM 41.3694 146.1375 29° Northeast  Level Estimated
Sun 11:27:00 PM 41.4909 146.2280 29° Northeast  Level Estimated
Sun 11:28:00 PM 41.6123 146.3187 29° Northeast  Level Estimated
Sun 11:29:00 PM 41.7336 146.4099 29° Northeast  Level Estimated
Sun 11:30:00 PM 41.8549 146.5013 29° Northeast  Level Estimated
Sun 11:31:00 PM 41.9761 146.5931 29° Northeast  Level Estimated
Sun 11:32:00 PM 42.0972 146.6853 29° Northeast  Level Estimated
Sun 11:33:00 PM 42.2182 146.7778 30° Northeast  Level Estimated
Sun 11:34:00 PM 42.3392 146.8706 30° Northeast  Level Estimated
Sun 11:35:00 PM 42.4601 146.9639 30° Northeast  Level Estimated
Sun 11:36:00 PM 42.5809 147.0574 30° Northeast  Level Estimated
Sun 11:37:00 PM 42.7016 147.1514 30° Northeast  Level Estimated
Sun 11:38:00 PM 42.8223 147.2457 30° Northeast  Level Estimated
Sun 11:39:00 PM 42.9428 147.3404 30° Northeast  Level Estimated
Sun 11:40:00 PM 43.0633 147.4354 30° Northeast  Level Estimated
Sun 11:41:00 PM 43.1838 147.5308 30° Northeast  Level Estimated
Sun 11:42:00 PM 43.3041 147.6266 30° Northeast  Level Estimated
Sun 11:43:00 PM 43.4244 147.7228 30° Northeast  Level Estimated
Sun 11:44:00 PM 43.5445 147.8194 30° Northeast  Level Estimated
Sun 11:45:00 PM 43.6646 147.9163 30° Northeast  Level Estimated
Sun 11:46:00 PM 43.7847 148.0137 30° Northeast  Level Estimated
Sun 11:47:00 PM 43.9046 148.1114 30° Northeast  Level Estimated
Sun 11:48:00 PM 44.0244 148.2095 30° Northeast  Level Estimated
Sun 11:49:00 PM 44.1442 148.3080 31° Northeast  Level Estimated
Sun 11:50:00 PM 44.2639 148.4070 31° Northeast  Level Estimated
Sun 11:51:00 PM 44.3835 148.5063 31° Northeast  Level Estimated
Sun 11:52:00 PM 44.5030 148.6060 31° Northeast  Level Estimated
Sun 11:53:00 PM 44.6224 148.7061 31° Northeast  Level Estimated
Sun 11:54:00 PM 44.7417 148.8067 31° Northeast  Level Estimated
Sun 11:55:00 PM 44.8610 148.9077 31° Northeast  Level Estimated
Sun 11:56:00 PM 44.9802 149.0090 31° Northeast  Level Estimated
Sun 11:57:00 PM 45.0992 149.1109 31° Northeast  Level Estimated
Sun 11:58:00 PM 45.2182 149.2131 31° Northeast  Level Estimated
Sun 11:59:00 PM 45.3371 149.3158 31° Northeast  Level Estimated
Mon 12:00:00 AM 45.4559 149.4189 31° Northeast  Level Estimated
Mon 12:01:00 AM 45.5746 149.5224 31° Northeast  Level Estimated
Mon 12:02:00 AM 45.6932 149.6263 31° Northeast  Level Estimated
Mon 12:03:00 AM 45.8117 149.7308 32° Northeast  Level Estimated
Mon 12:04:00 AM 45.9301 149.8356 32° Northeast  Level Estimated
Mon 12:05:00 AM 46.0484 149.9409 32° Northeast  Level Estimated
Mon 12:06:00 AM 46.1666 150.0467 32° Northeast  Level Estimated
Mon 12:07:00 AM 46.2848 150.1529 32° Northeast  Level Estimated
Mon 12:08:00 AM 46.4028 150.2596 32° Northeast  Level Estimated
Mon 12:09:00 AM 46.5207 150.3667 32° Northeast  Level Estimated
Mon 12:10:00 AM 46.6385 150.4743 32° Northeast  Level Estimated
Mon 12:11:00 AM 46.7562 150.5824 32° Northeast  Level Estimated
Mon 12:12:00 AM 46.8739 150.6909 32° Northeast  Level Estimated
Mon 12:13:00 AM 46.9914 150.7999 32° Northeast  Level Estimated
Mon 12:14:00 AM 47.1088 150.9094 32° Northeast  Level Estimated
Mon 12:15:00 AM 47.2261 151.0194 32° Northeast  Level Estimated
Mon 12:16:00 AM 47.3433 151.1299 33° Northeast  Level Estimated
Mon 12:17:00 AM 47.4604 151.2408 33° Northeast  Level Estimated
Mon 12:18:00 AM 47.5774 151.3523 33° Northeast  Level Estimated
Mon 12:19:00 AM 47.6943 151.4642 33° Northeast  Level Estimated
Mon 12:20:00 AM 47.8110 151.5767 33° Northeast  Level Estimated
Mon 12:21:00 AM 47.9277 151.6897 33° Northeast  Level Estimated
Mon 12:22:00 AM 48.0443 151.8031 33° Northeast  Level Estimated
Mon 12:23:00 AM 48.1607 151.9171 33° Northeast  Level Estimated
Mon 12:24:00 AM 48.2770 152.0316 33° Northeast  Level Estimated
Mon 12:25:00 AM 48.3932 152.1467 33° Northeast  Level Estimated
Mon 12:26:00 AM 48.5093 152.2622 33° Northeast  Level Estimated
Mon 12:27:00 AM 48.6253 152.3783 33° Northeast  Level Estimated
Mon 12:28:00 AM 48.7412 152.4949 34° Northeast  Level Estimated
Mon 12:29:00 AM 48.8569 152.6121 34° Northeast  Level Estimated
Mon 12:30:00 AM 48.9725 152.7298 34° Northeast  Level Estimated
Mon 12:31:00 AM 49.0880 152.8480 34° Northeast  Level Estimated
Mon 12:32:00 AM 49.2034 152.9668 34° Northeast  Level Estimated
Mon 12:33:00 AM 49.3187 153.0862 34° Northeast  Level Estimated
Mon 12:34:00 AM 49.4338 153.2061 34° Northeast  Level Estimated
Mon 12:35:00 AM 49.5488 153.3266 34° Northeast  Level Estimated
Mon 12:36:00 AM 49.6637 153.4476 34° Northeast  Level Estimated
Mon 12:37:00 AM 49.7785 153.5693 34° Northeast  Level Estimated
Mon 12:38:00 AM 49.8931 153.6915 34° Northeast  Level Estimated
Mon 12:39:00 AM 50.0076 153.8143 35° Northeast  Level Estimated
Mon 12:40:00 AM 50.1220 153.9376 35° Northeast  Level Estimated
Mon 12:41:00 AM 50.2362 154.0616 35° Northeast  Level Estimated
Mon 12:42:00 AM 50.3503 154.1861 35° Northeast  Level Estimated
Mon 12:43:00 AM 50.4643 154.3113 35° Northeast  Level Estimated
Mon 12:44:00 AM 50.5781 154.4370 35° Northeast  Level Estimated
Mon 12:45:00 AM 50.6918 154.5634 35° Northeast  Level Estimated
Mon 12:46:00 AM 50.8054 154.6904 35° Northeast  Level Estimated
Mon 12:47:00 AM 50.9188 154.8180 35° Northeast  Level Estimated
Mon 12:48:00 AM 51.0321 154.9462 35° Northeast  Level Estimated
Mon 12:49:00 AM 51.1453 155.0750 36° Northeast  Level Estimated
Mon 12:49:57 AM 48.2833 160.6833 54° Northeast 500 575 31,000  Level Anchorage Center
Mon 12:50:00 AM 51.2583 155.2045 36° Northeast  Level Estimated
Mon 12:51:00 AM 51.3711 155.3346 36° Northeast  Level Estimated
Mon 12:52:00 AM 51.4839 155.4654 36° Northeast  Level Estimated
Mon 12:53:00 AM 51.5964 155.5968 36° Northeast  Level Estimated
Mon 12:54:00 AM 51.7089 155.7289 36° Northeast  Level Estimated
Mon 12:55:00 AM 51.8211 155.8616 36° Northeast  Level Estimated
Mon 12:56:00 AM 48.8229 161.8258 55° Northeast 500 575 31,000  Level FlightAware Transoceanic
Mon 12:57:00 AM 48.8991 161.9910 55° Northeast 500 575 31,000  Level FlightAware Transoceanic
Mon 12:58:00 AM 48.9750 162.1568 55° Northeast 500 575 31,000  Level FlightAware Transoceanic
Mon 12:58:21 AM 48.9833 162.1667 55° Northeast 498 573 31,000  Level Anchorage Center
Mon 12:59:00 AM 49.0507 162.3230 55° Northeast 500 575 31,000  Level FlightAware Transoceanic
Mon 01:00:00 AM 49.1261 162.4897 55° Northeast 500 575 31,000  Level FlightAware Transoceanic
Mon 01:01:00 AM 49.2013 162.6569 56° Northeast 500 575 31,000  Level FlightAware Transoceanic
Mon 01:02:00 AM 49.2763 162.8247 56° Northeast 500 575 31,000  Level FlightAware Transoceanic
Mon 01:03:00 AM 49.3510 162.9929 56° Northeast 500 575 31,000  Level FlightAware Transoceanic
Mon 01:04:00 AM 49.4327 163.1706 56° Northeast 498 573 31,000  Level FlightAware Transoceanic
Mon 01:05:00 AM 49.5067 163.3397 56° Northeast 498 573 31,000  Level FlightAware Transoceanic
Mon 01:06:00 AM 49.5805 163.5093 56° Northeast 498 573 31,000  Level FlightAware Transoceanic
Mon 01:07:00 AM 49.6540 163.6794 56° Northeast 498 573 31,000  Level FlightAware Transoceanic
Mon 01:08:00 AM 49.7273 163.8500 56° Northeast 498 573 31,000  Level FlightAware Transoceanic
Mon 01:09:00 AM 49.8003 164.0212 57° Northeast 498 573 31,000  Level FlightAware Transoceanic
Mon 01:10:00 AM 49.8731 164.1928 57° Northeast 498 573 31,000  Level FlightAware Transoceanic
Mon 01:11:00 AM 49.9457 164.3650 57° Northeast 498 573 31,000  Level FlightAware Transoceanic
Mon 01:12:00 AM 50.0179 164.5377 57° Northeast 498 573 31,000  Level FlightAware Transoceanic
Mon 01:13:00 AM 50.0900 164.7109 57° Northeast 498 573 31,000  Level FlightAware Transoceanic
Mon 01:14:00 AM 50.1617 164.8847 57° Northeast 498 573 31,000  Level FlightAware Transoceanic
Mon 01:15:00 AM 50.2332 165.0589 57° Northeast 498 573 31,000  Level FlightAware Transoceanic
Mon 01:16:00 AM 50.3045 165.2337 58° Northeast 498 573 31,000  Level FlightAware Transoceanic
Mon 01:17:00 AM 50.3754 165.4090 58° Northeast 498 573 31,000  Level FlightAware Transoceanic
Mon 01:17:36 AM 50.4000 165.5167 58° Northeast 479 551 31,000  Level Anchorage Center
Mon 01:18:00 AM 50.4461 165.5849 58° Northeast 498 573 31,000  Level FlightAware Transoceanic
Mon 01:19:00 AM 50.5166 165.7612 58° Northeast 498 573 31,000  Level FlightAware Transoceanic
Mon 01:20:00 AM 50.5868 165.9381 58° Northeast 498 573 31,000  Level FlightAware Transoceanic
Mon 01:21:00 AM 50.6567 166.1155 58° Northeast 498 573 31,000  Level FlightAware Transoceanic
Mon 01:22:00 AM 50.7263 166.2935 58° Northeast 498 573 31,000  Level FlightAware Transoceanic
Mon 01:23:00 AM 50.8142 166.5577 58° Northeast 479 551 31,000  Level FlightAware Transoceanic
Mon 01:24:00 AM 50.8823 166.7330 58° Northeast 479 551 31,000  Level FlightAware Transoceanic
Mon 01:24:59 AM 50.9167 166.8000 59° Northeast 473 544 31,000  Level Anchorage Center
Mon 01:25:00 AM 50.9502 166.9088 59° Northeast 479 551 31,000  Level FlightAware Transoceanic
Mon 01:26:00 AM 51.0178 167.0851 59° Northeast 479 551 31,000  Level FlightAware Transoceanic
Mon 01:27:00 AM 51.0851 167.2619 59° Northeast 479 551 31,000  Level FlightAware Transoceanic
Mon 01:28:00 AM 51.1522 167.4393 59° Northeast 479 551 31,000  Level FlightAware Transoceanic
Mon 01:29:00 AM 51.2190 167.6171 59° Northeast 479 551 31,000  Level FlightAware Transoceanic
Mon 01:30:00 AM 51.2855 167.7955 59° Northeast 479 551 31,000  Level FlightAware Transoceanic
Mon 01:31:00 AM 51.3290 167.8970 60° Northeast 473 544 31,000  Level FlightAware Transoceanic
Mon 01:32:00 AM 51.3967 168.0818 60° Northeast 473 544 31,000  Level FlightAware Transoceanic
Mon 01:33:00 AM 51.4642 168.2670 60° Northeast 473 544 31,000  Level FlightAware Transoceanic
Mon 01:34:00 AM 51.5313 168.4529 60° Northeast 473 544 31,000  Level FlightAware Transoceanic
Mon 01:34:40 AM 51.5500 168.5333 61° Northeast 470 541 31,000  Level Anchorage Center
Mon 01:35:00 AM 51.5981 168.6393 60° Northeast 473 544 31,000  Level FlightAware Transoceanic
Mon 01:35:40 AM 51.6000 168.6833 62° Northeast 470 541 31,000  Level Anchorage Center
Mon 01:36:00 AM 51.6647 168.8262 60° Northeast 473 544 31,000  Level FlightAware Transoceanic
Mon 01:36:40 AM 51.6833 168.8833 56° Northeast 460 529 31,000  Level Anchorage Center
Mon 01:37:00 AM 51.7309 169.0137 60° Northeast 473 544 31,000  Level FlightAware Transoceanic
Mon 01:37:40 AM 51.7333 169.0333 62° Northeast 460 529 31,000  Level Anchorage Center
Mon 01:38:00 AM 51.7969 169.2017 61° Northeast 473 544 31,000  Level FlightAware Transoceanic
Mon 01:38:40 AM 51.8000 169.2333 62° Northeast 460 529 31,000  Level Anchorage Center
Mon 01:39:00 AM 51.8625 169.3903 61° Northeast 473 544 31,000  Level FlightAware Transoceanic
Mon 01:39:40 AM 51.8667 169.4167 59° Northeast 460 529 31,000  Level Anchorage Center
Mon 01:40:00 AM 51.9279 169.5794 61° Northeast 473 544 31,000 1,000 Level FlightAware Transoceanic
Mon 01:40:40 AM 51.9167 169.5667 62° Northeast 450 518 32,000 594 Climbing Anchorage Center
Mon 01:41:41 AM 51.9833 169.7667 62° Northeast 450 518 32,000  Level Anchorage Center
Mon 01:42:40 AM 52.0333 169.9167 62° Northeast 450 518 32,000  Level Anchorage Center
Mon 01:43:41 AM 52.1000 170.1167 61° Northeast 440 506 32,000  Level Anchorage Center
Mon 01:44:40 AM 52.1500 170.2667 61° Northeast 450 518 32,000  Level Anchorage Center
Mon 01:45:41 AM 52.2167 170.4500 59° Northeast 450 518 32,000  Level Anchorage Center
Mon 01:46:41 AM 52.2833 170.6000 54° Northeast 460 529 32,000  Level Anchorage Center
Mon 01:47:41 AM 52.3667 170.7833 53° Northeast 450 518 32,000  Level Anchorage Center
Mon 01:48:41 AM 52.4333 170.9667 59° Northeast 440 506 32,000  Level Anchorage Center
Mon 01:49:41 AM 52.5000 171.1000 51° Northeast 450 518 32,000  Level Anchorage Center
Mon 01:50:41 AM 52.5833 171.2833 53° Northeast 450 518 32,000  Level Anchorage Center
Mon 01:51:41 AM 52.6500 171.4333 54° Northeast 450 518 32,000  Level Anchorage Center
Mon 01:52:41 AM 52.7167 171.6000 57° Northeast 430 495 32,000  Level Anchorage Center
Mon 01:53:41 AM 52.7833 171.7500 54° Northeast 440 506 32,000  Level Anchorage Center
Mon 01:54:41 AM 52.8667 171.9333 53° Northeast 450 518 32,000  Level Anchorage Center
Mon 01:55:41 AM 52.9167 172.0833 61° Northeast 440 506 32,000  Level Anchorage Center
Mon 01:56:41 AM 53.0000 172.2500 50° Northeast 430 495 32,000  Level Anchorage Center
Mon 01:57:41 AM 53.0667 172.4000 53° Northeast 440 506 32,000  Level Anchorage Center
Mon 01:58:42 AM 53.1333 172.5833 59° Northeast 440 506 32,000 50 Level Anchorage Center
Mon 01:59:41 AM 53.2167 172.7667 53° Northeast 440 506 32,100 500 Climbing Anchorage Center
Mon 02:00:42 AM 53.2833 172.9167 53° Northeast 440 506 33,000 450 Climbing Anchorage Center
Mon 02:01:41 AM 53.3500 173.1000 59° Northeast 430 495 33,000  Level Anchorage Center
Mon 02:02:42 AM 53.4167 173.2500 53° Northeast 450 518 33,000  Level Anchorage Center
Mon 02:03:42 AM 53.4667 173.4500 67° East 430 495 33,000  Level Anchorage Center
Mon 02:04:42 AM 53.5167 173.6167 63° Northeast 450 518 33,000  Level Anchorage Center
Mon 02:05:42 AM 53.6000 173.8000 53° Northeast 430 495 33,000  Level Anchorage Center
Mon 02:06:42 AM 53.6500 173.9333 58° Northeast 440 506 33,000  Level Anchorage Center
Mon 02:07:42 AM 53.7333 174.1167 52° Northeast 440 506 33,000  Level Anchorage Center
Mon 02:08:42 AM 53.8000 174.2667 53° Northeast 430 495 33,000  Level Anchorage Center
Mon 02:09:42 AM 53.8667 174.4500 58° Northeast 450 518 33,000  Level Anchorage Center
Mon 02:10:42 AM 53.9333 174.6167 56° Northeast 450 518 33,000  Level Anchorage Center
Mon 02:11:42 AM 54.0000 174.8000 58° Northeast 440 506 33,000  Level Anchorage Center
Mon 02:12:42 AM 54.0667 175.0000 60° Northeast 440 506 33,000  Level Anchorage Center
Mon 02:13:43 AM 54.1333 175.1500 53° Northeast 430 495 33,000  Level Anchorage Center
Mon 02:14:42 AM 54.2000 175.3333 58° Northeast 440 506 33,000  Level Anchorage Center
Mon 02:15:42 AM 54.2500 175.5000 63° Northeast 440 506 33,000  Level Anchorage Center
Mon 02:16:43 AM 54.3167 175.6833 58° Northeast 440 506 33,000  Level Anchorage Center
Mon 02:17:43 AM 54.3833 175.8500 55° Northeast 440 506 33,000  Level Anchorage Center
Mon 02:18:43 AM 54.4333 176.0500 67° East 440 506 33,000  Level Anchorage Center
Mon 02:19:43 AM 54.5000 176.2000 53° Northeast 440 506 33,000  Level Anchorage Center
Mon 02:20:43 AM 54.5667 176.4000 60° Northeast 440 506 33,000  Level Anchorage Center
Mon 02:21:43 AM 54.6333 176.6000 60° Northeast 430 495 33,000  Level Anchorage Center
Mon 02:22:43 AM 54.6833 176.7500 60° Northeast 430 495 33,000  Level Anchorage Center
Mon 02:23:43 AM 54.7500 176.9500 60° Northeast 430 495 33,000  Level Anchorage Center
Mon 02:24:43 AM 54.8000 177.1000 60° Northeast 430 495 33,000  Level Anchorage Center
Mon 02:25:43 AM 54.8667 177.3000 60° Northeast 430 495 33,000  Level Anchorage Center
Mon 02:26:43 AM 54.9167 177.4667 62° Northeast 440 506 33,000  Level Anchorage Center
Mon 02:28:43 AM 55.0500 177.8167 56° Northeast 430 495 33,000  Level Anchorage Center
Mon 02:30:00 AM 55.1277 178.0802 63° Northeast  Level FlightAware Approximate
Mon 02:32:50 AM 55.3000 178.6167 61° Northeast 451 519 33,000  Level Anchorage Center
Mon 02:37:00 AM 55.5597 179.5200 61° Northeast  Level FlightAware Approximate
Mon 02:38:00 AM 55.6215 179.7268 62° Northeast  Level FlightAware Approximate
Mon 02:39:00 AM 55.6715 179.8356 62° Northeast 451 519 33,000  Level FlightAware Transoceanic
Mon 02:40:00 AM 55.7323 -179.9591 62° Northeast 451 519 33,000  Level FlightAware Transoceanic
Mon 02:41:00 AM 55.7927 -179.7530 63° Northeast 451 519 33,000  Level FlightAware Transoceanic
Mon 02:42:00 AM 55.8527 -179.5464 63° Northeast 451 519 33,000  Level FlightAware Transoceanic
Mon 02:43:00 AM 55.9124 -179.3391 63° Northeast 451 519 33,000  Level FlightAware Transoceanic
Mon 02:44:00 AM 55.9718 -179.1311 63° Northeast 451 519 33,000  Level FlightAware Transoceanic
Mon 02:45:00 AM 56.0308 -178.9226 63° Northeast 451 519 33,000  Level FlightAware Transoceanic
Mon 02:45:01 AM 56.0000 -179.0500 63° Northeast 456 525 33,000  Level Anchorage Center
Mon 02:46:00 AM 56.0894 -178.7134 63° Northeast 451 519 33,000  Level FlightAware Transoceanic
Mon 02:47:00 AM 56.1477 -178.5035 64° Northeast 451 519 33,000  Level FlightAware Transoceanic
Mon 02:48:00 AM 56.2056 -178.2930 64° Northeast 451 519 33,000  Level FlightAware Transoceanic
Mon 02:49:00 AM 56.2632 -178.0819 64° Northeast 451 519 33,000  Level FlightAware Transoceanic
Mon 02:50:00 AM 56.3204 -177.8702 64° Northeast 451 519 33,000  Level FlightAware Transoceanic
Mon 02:51:00 AM 56.3526 -177.7664 64° Northeast 456 525 33,000  Level FlightAware Transoceanic
Mon 02:52:00 AM 56.4101 -177.5502 64° Northeast 456 525 33,000  Level FlightAware Transoceanic
Mon 02:53:00 AM 56.4672 -177.3333 65° Northeast 456 525 33,000  Level FlightAware Transoceanic
Mon 02:54:00 AM 56.5239 -177.1157 65° Northeast 456 525 33,000  Level FlightAware Transoceanic
Mon 02:55:00 AM 56.5802 -176.8976 65° Northeast 456 525 33,000  Level FlightAware Transoceanic
Mon 02:56:00 AM 56.6362 -176.6787 65° Northeast 456 525 33,000  Level FlightAware Transoceanic
Mon 02:57:00 AM 56.6917 -176.4592 65° Northeast 456 525 33,000  Level FlightAware Transoceanic
Mon 02:58:00 AM 56.7469 -176.2391 66° East 456 525 33,000  Level FlightAware Transoceanic
Mon 02:58:19 AM 56.7167 -176.3000 65° Northeast 482 555 33,000  Level Anchorage Center
Mon 02:59:00 AM 56.8017 -176.0184 66° East 456 525 33,000  Level FlightAware Transoceanic
Mon 03:00:00 AM 56.8561 -175.7970 66° East 456 525 33,000  Level FlightAware Transoceanic
Mon 03:01:00 AM 56.9101 -175.5749 66° East 456 525 33,000  Level FlightAware Transoceanic
Mon 03:02:00 AM 56.9637 -175.3522 66° East 456 525 33,000  Level FlightAware Transoceanic
Mon 03:03:00 AM 57.0169 -175.1289 66° East 456 525 33,000  Level FlightAware Transoceanic
Mon 03:04:00 AM 57.0475 -174.9518 66° East 482 555 33,000  Level FlightAware Transoceanic
Mon 03:04:35 AM 57.0667 -174.8500 67° East 470 541 33,000  Level Anchorage Center
Mon 03:05:00 AM 57.1013 -174.7247 67° East 482 555 33,000  Level FlightAware Transoceanic
Mon 03:05:35 AM 57.1000 -174.6667 71° East 480 552 33,000  Level Anchorage Center
Mon 03:06:00 AM 57.1546 -174.4971 67° East 482 555 33,000  Level FlightAware Transoceanic
Mon 03:06:35 AM 57.1500 -174.4500 67° East 480 552 33,000  Level Anchorage Center
Mon 03:07:00 AM 57.2075 -174.2687 67° East 482 555 33,000  Level FlightAware Transoceanic
Mon 03:07:35 AM 57.2000 -174.2167 68° East 470 541 33,000  Level Anchorage Center
Mon 03:08:00 AM 57.2600 -174.0397 67° East 482 555 33,000  Level FlightAware Transoceanic
Mon 03:08:36 AM 57.2500 -173.9833 68° East 490 564 33,000  Level Anchorage Center
Mon 03:09:00 AM 57.3120 -173.8101 67° East 482 555 33,000  Level FlightAware Transoceanic
Mon 03:09:36 AM 57.3000 -173.7500 68° East 480 552 33,000  Level Anchorage Center
Mon 03:10:36 AM 57.3500 -173.5167 68° East 480 552 33,000  Level Anchorage Center
Mon 03:11:36 AM 57.4167 -173.2833 62° Northeast 480 552 33,000  Level Anchorage Center
Mon 03:12:36 AM 57.4667 -173.0500 68° East 490 564 33,000 500 Level Anchorage Center
Mon 03:13:36 AM 57.5167 -172.8167 68° East 490 564 34,000 1,000 Climbing Anchorage Center
Mon 03:14:36 AM 57.5667 -172.5833 68° East 480 552 35,000 500 Climbing Anchorage Center
Mon 03:15:36 AM 57.6167 -172.3333 69° East 510 587 35,000  Level Anchorage Center
Mon 03:16:36 AM 57.6667 -172.1000 68° East 500 575 35,000  Level Anchorage Center
Mon 03:17:36 AM 57.7167 -171.8500 69° East 490 564 35,000  Level Anchorage Center
Mon 03:18:36 AM 57.7667 -171.6167 68° East 510 587 35,000  Level Anchorage Center
Mon 03:19:36 AM 57.8167 -171.3667 69° East 500 575 35,000  Level Anchorage Center
Mon 03:20:36 AM 57.8667 -171.1167 69° East 500 575 35,000  Level Anchorage Center
Mon 03:21:36 AM 57.9167 -170.8667 69° East 500 575 35,000  Level Anchorage Center
Mon 03:22:36 AM 57.9667 -170.6167 69° East 500 575 35,000  Level Anchorage Center
Mon 03:23:36 AM 58.0333 -170.3833 62° Northeast 490 564 35,000  Level Anchorage Center
Mon 03:24:37 AM 58.0833 -170.1167 70° East 510 587 35,000  Level Anchorage Center
Mon 03:25:37 AM 58.1333 -169.8833 68° East 500 575 35,000  Level Anchorage Center
Mon 03:26:37 AM 58.1833 -169.6333 69° East 500 575 35,000  Level Anchorage Center
Mon 03:27:36 AM 58.2333 -169.3667 70° East 510 587 35,000  Level Anchorage Center
Mon 03:28:37 AM 58.2833 -169.1167 69° East 510 587 35,000  Level Anchorage Center
Mon 03:29:37 AM 58.3500 -168.8667 63° Northeast 510 587 35,000  Level Anchorage Center
Mon 03:30:37 AM 58.4000 -168.6167 69° East 510 587 35,000  Level Anchorage Center
Mon 03:31:37 AM 58.4500 -168.3500 70° East 520 598 35,000  Level Anchorage Center
Mon 03:32:37 AM 58.5000 -168.1000 69° East 510 587 35,000  Level Anchorage Center
Mon 03:33:32 AM 58.5333 -167.8833 73° East 510 587 35,000  Level Anchorage Center
Mon 03:34:32 AM 58.5833 -167.6333 69° East 510 587 35,000  Level Anchorage Center
Mon 03:35:33 AM 58.6333 -167.3667 70° East 500 575 35,000  Level Anchorage Center
Mon 03:36:33 AM 58.6833 -167.1167 69° East 510 587 35,000  Level Anchorage Center
Mon 03:37:33 AM 58.7333 -166.8500 70° East 510 587 35,000  Level Anchorage Center
Mon 03:38:33 AM 58.7833 -166.5667 71° East 530 610 35,000  Level Anchorage Center
Mon 03:39:33 AM 58.8333 -166.3000 70° East 520 598 35,000  Level Anchorage Center
Mon 03:40:33 AM 58.8667 -166.0333 76° East 510 587 35,000  Level Anchorage Center
Mon 03:41:33 AM 58.9167 -165.7667 70° East 510 587 35,000  Level Anchorage Center
Mon 03:42:33 AM 58.9667 -165.5167 69° East 500 575 35,000  Level Anchorage Center
Mon 03:43:33 AM 59.0167 -165.2500 70° East 510 587 35,000  Level Anchorage Center
Mon 03:44:33 AM 59.0500 -164.9833 76° East 500 575 35,000  Level Anchorage Center
Mon 03:45:33 AM 59.1000 -164.7167 70° East 500 575 35,000  Level Anchorage Center
Mon 03:46:34 AM 59.1500 -164.4500 70° East 510 587 35,000  Level Anchorage Center
Mon 03:47:34 AM 59.1833 -164.1833 76° East 510 587 35,000  Level Anchorage Center
Mon 03:48:34 AM 59.2333 -163.9167 70° East 510 587 35,000  Level Anchorage Center
Mon 03:49:34 AM 59.2667 -163.6500 76° East 510 587 35,000  Level Anchorage Center
Mon 03:50:34 AM 59.3167 -163.3667 71° East 510 587 35,000  Level Anchorage Center
Mon 03:51:34 AM 59.3667 -163.1000 70° East 510 587 35,000  Level Anchorage Center
Mon 03:52:34 AM 59.4000 -162.8333 76° East 510 587 35,000  Level Anchorage Center
Mon 03:53:35 AM 59.4500 -162.5667 70° East 510 587 35,000  Level Anchorage Center
Mon 03:54:35 AM 59.5000 -162.2833 71° East 520 598 35,000  Level Anchorage Center
Mon 03:55:35 AM 59.5333 -162.0167 76° East 520 598 35,000  Level Anchorage Center
Mon 03:56:35 AM 59.5833 -161.7333 71° East 520 598 35,000  Level Anchorage Center
Mon 03:57:35 AM 59.6333 -161.4667 70° East 520 598 35,000  Level Anchorage Center
Mon 03:58:35 AM 59.6667 -161.2500 73° East 520 598 35,000  Level Anchorage Center
Mon 03:59:35 AM 59.7167 -160.9167 73° East 510 587 35,000  Level Anchorage Center
Mon 04:00:35 AM 59.7500 -160.6333 77° East 520 598 35,000  Level Anchorage Center
Mon 04:01:35 AM 59.8000 -160.3667 69° East 510 587 35,000  Level Anchorage Center
Mon 04:02:35 AM 59.8333 -160.0833 77° East 520 598 35,000  Level Anchorage Center
Mon 04:03:35 AM 59.8833 -159.8000 71° East 520 598 35,000  Level Anchorage Center
Mon 04:04:35 AM 59.9167 -159.5167 77° East 520 598 35,000  Level Anchorage Center
Mon 04:05:36 AM 59.9500 -159.2333 77° East 520 598 35,000  Level Anchorage Center
Mon 04:06:36 AM 60.0000 -158.9500 70° East 520 598 35,000  Level Anchorage Center
Mon 04:07:36 AM 60.0167 -158.7167 82° East 520 598 35,000  Level Anchorage Center
Mon 04:08:36 AM 60.0667 -158.4333 70° East 530 610 35,000  Level Anchorage Center
Mon 04:09:36 AM 60.1000 -158.1500 77° East 520 598 35,000  Level Anchorage Center
Mon 04:10:36 AM 60.1333 -157.8667 77° East 520 598 35,000  Level Anchorage Center
Mon 04:11:37 AM 60.1667 -157.5833 77° East 520 598 35,000  Level Anchorage Center
Mon 04:12:37 AM 60.2167 -157.2333 74° East 530 610 35,000  Level Anchorage Center
Mon 04:13:37 AM 60.2500 -156.9500 77° East 520 598 35,000  Level Anchorage Center
Mon 04:14:37 AM 60.2833 -156.6667 77° East 520 598 35,000  Level Anchorage Center
Mon 04:15:37 AM 60.3167 -156.3667 77° East 520 598 35,000  Level Anchorage Center
Mon 04:16:37 AM 60.3333 -156.1333 82° East 520 598 35,000  Level Anchorage Center
Mon 04:17:37 AM 60.3667 -155.8000 78° East 520 598 35,000  Level Anchorage Center
Mon 04:23:07 AM 60.6070 -154.2430 78° East 532 612 35,000  Level FlightAware ADS-B
Mon 04:23:42 AM 60.6480 -154.0780 63° Northeast 531 611 35,000  Level FlightAware ADS-B
Mon 04:24:32 AM 60.6980 -153.8750 63° Northeast 526 605 35,000  Level FlightAware ADS-B
Mon 04:25:12 AM 60.7450 -153.6830 63° Northeast 527 606 35,000  Level FlightAware ADS-B
Mon 04:25:57 AM 60.7950 -153.4730 64° Northeast 526 605 35,000  Level FlightAware ADS-B
Mon 04:26:37 AM 60.8370 -153.2950 64° Northeast 526 605 35,000  Level FlightAware ADS-B
Mon 04:27:17 AM 60.8810 -153.1130 64° Northeast 528 608 35,000  Level FlightAware ADS-B
Mon 04:28:52 AM 60.9760 -152.7040 64° Northeast 527 606 35,000  Level FlightAware ADS-B
Mon 04:30:02 AM 61.0490 -152.3860 65° Northeast 527 606 35,000  Level FlightAware ADS-B
Mon 04:31:17 AM 61.1260 -152.0430 65° Northeast 523 602 35,000  Level FlightAware ADS-B
Mon 04:32:27 AM 61.1970 -151.7270 65° Northeast 523 602 35,000  Level FlightAware ADS-B
Mon 04:33:37 AM 61.2670 -151.4050 66° East 523 602 35,000  Level FlightAware ADS-B
Mon 04:34:52 AM 61.3430 -151.0560 65° Northeast 525 604 35,000  Level FlightAware ADS-B
Mon 04:36:07 AM 61.4150 -150.7130 66° East 526 605 35,000  Level FlightAware ADS-B
Mon 04:37:17 AM 61.4830 -150.3890 66° East 525 604 35,000  Level FlightAware ADS-B
Mon 04:38:27 AM 61.5500 -150.0630 67° East 522 601 35,000  Level FlightAware ADS-B
Mon 04:39:37 AM 61.6170 -149.7310 67° East 523 602 35,000  Level FlightAware ADS-B
Mon 04:42:07 AM 61.7560 -149.0280 67° East 522 601 35,000  Level FlightAware ADS-B
Mon 04:44:32 AM 61.8870 -148.3360 68° East 528 608 35,000  Level FlightAware ADS-B
Mon 04:45:37 AM 61.9460 -148.0250 68° East 527 606 35,000  Level FlightAware ADS-B
Mon 04:46:17 AM 61.9770 -147.8610 68° East 527 606 35,000  Level FlightAware ADS-B
Mon 04:46:57 AM 62.0080 -147.6980 68° East 527 606 35,000  Level FlightAware ADS-B
Mon 04:48:41 AM 62.0833 -147.1667 68° East 500 575 35,000  Level Anchorage Center
Mon 04:49:41 AM 62.1333 -146.8833 69° East 510 587 35,000  Level Anchorage Center
Mon 04:50:41 AM 62.2000 -146.5833 64° Northeast 520 598 35,000  Level Anchorage Center
Mon 04:51:41 AM 62.2500 -146.2833 70° East 520 598 35,000  Level Anchorage Center
Mon 04:52:41 AM 62.2833 -146.0000 76° East 510 587 35,000  Level Anchorage Center
Mon 04:53:41 AM 62.3333 -145.7167 69° East 510 587 35,000  Level Anchorage Center
Mon 04:54:41 AM 62.3833 -145.4167 70° East 510 587 35,000  Level Anchorage Center
Mon 04:55:41 AM 62.4333 -145.1167 70° East 520 598 35,000  Level Anchorage Center
Mon 04:56:41 AM 62.4833 -144.8167 70° East 530 610 35,000  Level Anchorage Center
Mon 04:57:42 AM 62.5333 -144.5167 70° East 520 598 35,000  Level Anchorage Center
Mon 04:58:42 AM 62.5667 -144.2167 76° East 520 598 35,000  Level Anchorage Center
Mon 04:59:42 AM 62.6167 -143.9167 70° East 520 598 35,000  Level Anchorage Center
Mon 05:00:42 AM 62.6500 -143.6167 76° East 520 598 35,000  Level Anchorage Center
Mon 05:01:42 AM 62.7000 -143.3167 70° East 520 598 35,000  Level Anchorage Center
Mon 05:02:42 AM 62.7500 -143.0167 70° East 520 598 35,000  Level Anchorage Center
Mon 05:03:42 AM 62.7833 -142.7167 76° East 520 598 35,000  Level Anchorage Center
Mon 05:04:42 AM 62.8333 -142.4167 70° East 520 598 35,000  Level Anchorage Center
Mon 05:05:43 AM 62.8667 -142.1167 76° East 510 587 35,000  Level Anchorage Center
Mon 05:06:43 AM 62.9000 -141.8167 76° East 510 587 35,000  Level Anchorage Center
Mon 05:07:43 AM 62.9500 -141.5167 70° East 510 587 35,000  Level Anchorage Center
Mon 05:08:43 AM 62.9833 -141.2167 76° East 510 587 35,000  Level Anchorage Center
Mon 05:10:00 AM 63.0122 -140.8306 81° East  Level FlightAware Approximate
Mon 05:17:00 AM 63.1476 -138.7111 81° East  Level FlightAware Approximate
Mon 05:18:00 AM 63.1644 -138.4068 83° East  Level FlightAware Approximate
Mon 05:19:00 AM 63.1805 -138.1022 83° East  Level FlightAware Approximate
Mon 05:20:00 AM 63.1959 -137.7972 83° East  Level FlightAware Approximate
Mon 05:21:00 AM 63.2107 -137.4919 84° East  Level FlightAware Approximate
Mon 05:22:00 AM 63.2248 -137.1862 84° East  Level FlightAware Approximate
Mon 05:23:00 AM 63.2383 -136.8803 84° East  Level FlightAware Approximate
Mon 05:24:00 AM 63.2511 -136.5741 85° East  Level FlightAware Approximate
Mon 05:25:00 AM 63.2633 -136.2677 85° East  Level FlightAware Approximate
Mon 05:26:00 AM 63.2748 -135.9610 85° East  Level FlightAware Approximate
Mon 05:27:00 AM 63.2856 -135.6541 85° East  Level FlightAware Approximate
Mon 05:28:00 AM 63.2958 -135.3469 86° East  Level FlightAware Approximate
Mon 05:29:00 AM 63.3053 -135.0395 86° East  Level FlightAware Approximate
Mon 05:30:00 AM 63.3142 -134.7320 86° East  Level FlightAware Approximate
Mon 05:31:00 AM 63.3224 -134.4242 86° East  Level FlightAware Approximate
Mon 05:32:00 AM 63.3299 -134.1163 87° East  Level FlightAware Approximate
Mon 05:33:00 AM 63.3368 -133.8082 87° East  Level FlightAware Approximate
Mon 05:34:00 AM 63.3430 -133.5000 87° East  Level FlightAware Approximate
Mon 05:35:00 AM 63.3485 -133.1917 88° East  Level FlightAware Approximate
Mon 05:36:00 AM 63.3534 -132.8832 88° East  Level FlightAware Approximate
Mon 05:37:00 AM 63.3576 -132.5747 88° East  Level FlightAware Approximate
Mon 05:38:00 AM 63.3611 -132.2660 88° East  Level FlightAware Approximate
Mon 05:39:00 AM 63.3640 -131.9573 89° East  Level FlightAware Approximate
Mon 05:40:00 AM 63.3662 -131.6486 89° East  Level FlightAware Approximate
Mon 05:41:00 AM 63.3677 -131.3398 89° East  Level FlightAware Approximate
Mon 05:42:00 AM 63.3686 -131.0310 90° East  Level FlightAware Approximate
Mon 05:43:00 AM 63.3688 -130.7222 90° East  Level FlightAware Approximate
Mon 05:44:00 AM 63.3683 -130.4133 90° East  Level FlightAware Approximate
Mon 05:45:00 AM 63.3672 -130.1045 90° East  Level FlightAware Approximate
Mon 05:46:00 AM 63.3657 -129.7957 91° East  Level FlightAware Approximate
Mon 05:47:00 AM 63.3636 -129.4870 91° East  Level FlightAware Approximate
Mon 05:48:00 AM 63.3609 -129.1783 91° East  Level FlightAware Approximate
Mon 05:49:00 AM 63.3575 -128.8696 91° East  Level FlightAware Approximate
Mon 05:50:00 AM 63.3534 -128.5611 92° East  Level FlightAware Approximate
Mon 05:51:00 AM 63.3487 -128.2526 92° East  Level FlightAware Approximate
Mon 05:52:00 AM 63.3433 -127.9443 92° East  Level FlightAware Approximate
Mon 05:53:00 AM 63.3372 -127.6360 92° East  Level FlightAware Approximate
Mon 05:54:00 AM 63.3305 -127.3279 93° East  Level FlightAware Approximate
Mon 05:55:00 AM 63.3231 -127.0200 93° East  Level FlightAware Approximate
Mon 05:56:00 AM 63.3151 -126.7122 93° East  Level FlightAware Approximate
Mon 05:57:00 AM 63.3064 -126.4046 93° East  Level FlightAware Approximate
Mon 05:58:00 AM 63.2970 -126.0972 94° East  Level FlightAware Approximate
Mon 05:59:00 AM 63.2869 -125.7900 94° East  Level FlightAware Approximate
Mon 06:00:00 AM 63.2762 -125.4830 94° East  Level FlightAware Approximate
Mon 06:01:00 AM 63.2649 -125.1763 95° East  Level FlightAware Approximate
Mon 06:02:00 AM 63.2528 -124.8698 95° East  Level FlightAware Approximate
Mon 06:03:00 AM 63.2402 -124.5636 95° East  Level FlightAware Approximate
Mon 06:04:00 AM 63.2268 -124.2576 95° East  Level FlightAware Approximate
Mon 06:05:00 AM 63.2128 -123.9519 96° East  Level FlightAware Approximate
Mon 06:06:00 AM 63.1982 -123.6466 96° East  Level FlightAware Approximate
Mon 06:06:10 AM 62.8500 -122.6500 97° East 550 633 35,000  Level Edmonton Center
Mon 06:07:00 AM 63.1829 -123.3415 96° East  Level FlightAware Approximate
Mon 06:07:10 AM 62.8333 -122.3167 96° East 550 633 35,000  Level Edmonton Center
Mon 06:08:00 AM 63.1676 -123.0366 96° East  Level FlightAware Approximate
Mon 06:08:10 AM 62.8000 -122.0000 103° East 550 633 35,000  Level Edmonton Center
Mon 06:09:00 AM 63.1516 -122.7321 96° East  Level FlightAware Approximate
Mon 06:09:10 AM 62.7500 -121.6333 106° East 550 633 35,000  Level Edmonton Center
Mon 06:10:00 AM 63.1349 -122.4279 97° East  Level FlightAware Approximate
Mon 06:10:10 AM 62.7167 -121.3167 103° East 550 633 35,000  Level Edmonton Center
Mon 06:11:00 AM 63.1177 -122.1240 97° East  Level FlightAware Approximate
Mon 06:11:10 AM 62.6833 -120.9833 102° East 550 633 35,000  Level Edmonton Center
Mon 06:12:10 AM 62.6500 -120.6667 103° East 550 633 35,000  Level Edmonton Center
Mon 06:13:10 AM 62.6000 -120.3333 108° East 550 633 35,000  Level Edmonton Center
Mon 06:14:10 AM 62.5667 -120.0167 103° East 550 633 35,000  Level Edmonton Center
Mon 06:15:10 AM 62.5333 -119.7000 103° East 550 633 35,000  Level Edmonton Center
Mon 06:16:10 AM 62.5000 -119.3833 103° East 560 644 35,000  Level Edmonton Center
Mon 06:17:10 AM 62.4500 -119.0500 108° East 550 633 35,000  Level Edmonton Center
Mon 06:18:10 AM 62.4167 -118.7000 101° East 550 633 35,000  Level Edmonton Center
Mon 06:19:10 AM 62.3833 -118.3833 103° East 560 644 35,000  Level Edmonton Center
Mon 06:20:10 AM 62.3333 -118.0667 109° East 550 633 35,000  Level Edmonton Center
Mon 06:21:10 AM 62.2833 -117.7167 107° East 550 633 35,000  Level Edmonton Center
Mon 06:22:10 AM 62.2500 -117.4000 103° East 550 633 35,000  Level Edmonton Center
Mon 06:23:10 AM 62.1833 -117.0833 114° Southeast 550 633 35,000  Level Edmonton Center
Mon 06:24:10 AM 62.1500 -116.7667 103° East 550 633 35,000  Level Edmonton Center
Mon 06:25:10 AM 62.1000 -116.4667 109° East 550 633 35,000  Level Edmonton Center
Mon 06:26:10 AM 62.0500 -116.1500 108° East 550 633 35,000  Level Edmonton Center
Mon 06:27:10 AM 62.0167 -115.8500 103° East 550 633 35,000  Level Edmonton Center
Mon 06:28:10 AM 61.9500 -115.5333 114° Southeast 550 633 35,000  Level Edmonton Center
Mon 06:29:10 AM 61.9000 -115.2167 108° East 550 633 35,000  Level Edmonton Center
Mon 06:30:10 AM 61.8667 -114.8833 102° East 550 633 35,000  Level Edmonton Center
Mon 06:31:10 AM 61.8000 -114.5667 114° Southeast 560 644 35,000  Level Edmonton Center
Mon 06:32:10 AM 61.7500 -114.2667 109° East 560 644 35,000  Level Edmonton Center
Mon 06:33:10 AM 61.7000 -113.9333 107° East 560 644 35,000  Level Edmonton Center
Mon 06:34:10 AM 61.6333 -113.6167 114° Southeast 560 644 35,000  Level Edmonton Center
Mon 06:35:10 AM 61.5833 -113.3167 109° East 560 644 35,000  Level Edmonton Center
Mon 06:36:10 AM 61.5333 -113.0167 109° East 560 644 35,000  Level Edmonton Center
Mon 06:37:10 AM 61.4667 -112.7167 115° Southeast 560 644 35,000  Level Edmonton Center
Mon 06:38:10 AM 61.4167 -112.3833 107° East 560 644 35,000  Level Edmonton Center
Mon 06:39:10 AM 61.3667 -112.0833 109° East 560 644 35,000  Level Edmonton Center
Mon 06:40:10 AM 61.3000 -111.7500 112° Southeast 560 644 35,000  Level Edmonton Center
Mon 06:41:10 AM 61.2500 -111.4500 109° East 560 644 35,000  Level Edmonton Center
Mon 06:42:10 AM 61.2000 -111.1667 110° East 560 644 35,000  Level Edmonton Center
Mon 06:43:10 AM 61.1167 -110.8667 120° Southeast 560 644 35,000  Level Edmonton Center
Mon 06:44:10 AM 61.0667 -110.5333 107° East 560 644 35,000  Level Edmonton Center
Mon 06:45:10 AM 61.0167 -110.2500 110° East 560 644 35,000  Level Edmonton Center
Mon 06:46:10 AM 60.9500 -109.9667 116° Southeast 560 644 35,000  Level Edmonton Center
Mon 06:47:10 AM 60.8833 -109.6667 114° Southeast 560 644 35,000  Level Edmonton Center
Mon 06:48:10 AM 60.8167 -109.3833 116° Southeast 560 644 35,000  Level Edmonton Center
Mon 06:49:10 AM 60.7500 -109.0833 114° Southeast 560 644 35,000  Level Edmonton Center
Mon 06:50:10 AM 60.6833 -108.7667 113° Southeast 560 644 35,000  Level Edmonton Center
Mon 06:51:10 AM 60.6333 -108.4833 110° East 560 644 35,000  Level Edmonton Center
Mon 06:52:10 AM 60.5500 -108.2000 121° Southeast 560 644 35,000  Level Edmonton Center
Mon 06:53:10 AM 60.4833 -107.9167 115° Southeast 560 644 35,000  Level Edmonton Center
Mon 06:54:10 AM 60.4167 -107.6000 113° Southeast 560 644 35,000  Level Edmonton Center
Mon 06:55:10 AM 60.3500 -107.3167 115° Southeast 560 644 35,000  Level Edmonton Center
Mon 06:56:10 AM 60.2833 -107.0167 114° Southeast 560 644 35,000  Level Edmonton Center
Mon 06:57:10 AM 60.2167 -106.7333 115° Southeast 560 644 35,000  Level Edmonton Center
Mon 06:58:10 AM 60.1333 -106.4500 120° Southeast 560 644 35,000  Level Edmonton Center
Mon 06:59:10 AM 60.0667 -106.1833 117° Southeast 560 644 35,000  Level Edmonton Center
Mon 07:00:10 AM 60.0000 -105.8667 113° Southeast 560 644 35,000  Level Edmonton Center
Mon 07:01:10 AM 59.9167 -105.6000 122° Southeast 560 644 35,000  Level Edmonton Center
Mon 07:02:10 AM 59.8500 -105.3333 116° Southeast 560 644 35,000  Level Edmonton Center
Mon 07:03:10 AM 59.7833 -105.0333 114° Southeast 570 656 35,000  Level Edmonton Center
Mon 07:04:10 AM 59.7000 -104.7500 120° Southeast 570 656 35,000  Level Edmonton Center
Mon 07:05:10 AM 59.6333 -104.4833 116° Southeast 570 656 35,000  Level Edmonton Center
Mon 07:06:10 AM 59.5667 -104.1833 114° Southeast 570 656 35,000  Level Edmonton Center
Mon 07:07:10 AM 59.4833 -103.9167 122° Southeast 560 644 35,000  Level Edmonton Center
Mon 07:08:10 AM 59.4000 -103.6500 121° Southeast 560 644 35,000  Level Edmonton Center
Mon 07:09:10 AM 59.3333 -103.3667 115° Southeast 570 656 35,000  Level Edmonton Center
Mon 07:10:10 AM 59.2500 -103.1000 121° Southeast 570 656 35,000  Level Edmonton Center
Mon 07:11:10 AM 59.1833 -102.8333 116° Southeast 570 656 35,000  Level Edmonton Center
Mon 07:12:10 AM 59.0833 -102.5500 124° Southeast 570 656 35,000  Level Edmonton Center
Mon 07:13:10 AM 59.0167 -102.2833 116° Southeast 570 656 35,000  Level Edmonton Center
Mon 07:14:10 AM 58.9333 -102.0333 123° Southeast 570 656 35,000  Level Edmonton Center
Mon 07:15:10 AM 58.8500 -101.7500 120° Southeast 570 656 35,000  Level Edmonton Center
Mon 07:16:10 AM 58.7667 -101.4500 118° Southeast 570 656 35,000  Level Edmonton Center
Mon 07:17:10 AM 58.6833 -101.2000 123° Southeast 570 656 35,000  Level Edmonton Center
Mon 07:18:10 AM 58.6000 -100.9500 123° Southeast 570 656 35,000  Level Edmonton Center
Mon 07:19:10 AM 58.5333 -100.6667 114° Southeast 570 656 35,000  Level Edmonton Center
Mon 07:20:10 AM 58.4333 -100.4167 127° Southeast 570 656 35,000  Level Edmonton Center
Mon 07:21:10 AM 58.3500 -100.1667 122° Southeast 570 656 35,000  Level Edmonton Center
Mon 07:22:10 AM 58.2667 -99.9000 121° Southeast 570 656 35,000  Level Edmonton Center
Mon 07:23:10 AM 58.1833 -99.6500 122° Southeast 570 656 35,000  Level Edmonton Center
Mon 07:24:10 AM 58.1000 -99.4000 122° Southeast 570 656 35,000  Level Edmonton Center
Mon 07:25:10 AM 58.0000 -99.1500 127° Southeast 560 644 35,000  Level Edmonton Center
Mon 07:26:10 AM 57.9333 -98.8833 115° Southeast 560 644 35,000  Level Edmonton Center
Mon 07:27:10 AM 57.8500 -98.6333 122° Southeast 560 644 35,000  Level Edmonton Center
Mon 07:28:10 AM 57.7500 -98.3667 125° Southeast 560 644 35,000  Level Edmonton Center
Mon 07:29:10 AM 57.6667 -98.1333 124° Southeast 560 644 35,000  Level Edmonton Center
Mon 07:30:10 AM 57.5833 -97.9000 124° Southeast 560 644 35,000  Level Edmonton Center
Mon 07:31:10 AM 57.4833 -97.6667 129° Southeast 560 644 35,000  Level Edmonton Center
Mon 07:32:10 AM 57.4000 -97.4167 122° Southeast 560 644 35,000  Level Edmonton Center
Mon 07:33:10 AM 57.3000 -97.1667 126° Southeast 560 644 35,000  Level Edmonton Center
Mon 07:34:10 AM 57.2167 -96.9333 123° Southeast 560 644 35,000  Level Edmonton Center
Mon 07:35:10 AM 57.1333 -96.7000 123° Southeast 560 644 35,000  Level Edmonton Center
Mon 07:36:10 AM 57.0500 -96.4667 123° Southeast 550 633 35,000  Level Edmonton Center
Mon 07:37:10 AM 56.9667 -96.2333 123° Southeast 560 644 35,000  Level Edmonton Center
Mon 07:38:10 AM 56.8667 -95.9667 124° Southeast 550 633 35,000  Level Edmonton Center
Mon 07:39:10 AM 56.7833 -95.7500 125° Southeast 560 644 35,000  Level Edmonton Center
Mon 07:40:10 AM 56.6667 -95.5167 132° Southeast 550 633 35,000  Level Edmonton Center
Mon 07:41:10 AM 56.5833 -95.3000 125° Southeast 560 644 35,000  Level Edmonton Center
Mon 07:42:10 AM 56.5000 -95.0333 119° Southeast 560 644 35,000  Level Edmonton Center
Mon 07:43:10 AM 56.4167 -94.8167 125° Southeast 560 644 35,000  Level Edmonton Center
Mon 07:44:10 AM 56.3000 -94.6000 134° Southeast 560 644 35,000  Level Edmonton Center
Mon 07:45:10 AM 56.2167 -94.3833 125° Southeast 560 644 35,000  Level Edmonton Center
Mon 07:46:10 AM 56.1167 -94.1667 130° Southeast 560 644 35,000  Level Edmonton Center
Mon 07:47:10 AM 56.0333 -93.9333 123° Southeast 560 644 35,000  Level Edmonton Center
Mon 07:48:10 AM 55.9167 -93.7333 136° Southeast 560 644 35,000  Level Edmonton Center
Mon 07:49:10 AM 55.8167 -93.4833 125° Southeast 560 644 35,000  Level Edmonton Center
Mon 07:50:10 AM 55.7167 -93.2667 129° Southeast 560 644 35,000  Level Edmonton Center
Mon 07:51:10 AM 55.6167 -93.0667 131° Southeast 560 644 35,000  Level Edmonton Center
Mon 07:52:10 AM 55.5333 -92.8500 124° Southeast 560 644 35,000  Level Edmonton Center
Mon 07:53:10 AM 55.4167 -92.6333 133° Southeast 560 644 35,000  Level Edmonton Center
Mon 07:55:10 AM 55.2167 -92.2167 130° Southeast 560 644 35,000  Level Edmonton Center
Mon 07:56:10 AM 55.1333 -92.0167 126° Southeast 550 633 35,000  Level Edmonton Center
Mon 07:57:10 AM 55.0167 -91.7833 131° Southeast 550 633 35,000  Level Edmonton Center
Mon 07:58:10 AM 54.9333 -91.6000 128° Southeast 550 633 35,000  Level Edmonton Center
Mon 08:00:00 AM 54.7641 -91.2691 131° Southeast  Level FlightAware Approximate
Mon 08:02:10 AM 54.5167 -90.7833 136° Southeast 540 621 35,000  Level Edmonton Center
Mon 08:03:10 AM 54.4167 -90.6000 133° Southeast 540 621 35,000  Level Edmonton Center
Mon 08:04:10 AM 54.3167 -90.4000 131° Southeast 540 621 35,000  Level Edmonton Center
Mon 08:05:10 AM 54.2167 -90.2167 133° Southeast 540 621 35,000  Level Edmonton Center
Mon 08:06:10 AM 54.1167 -90.0333 133° Southeast 530 610 35,000  Level Edmonton Center
Mon 08:07:00 AM 54.1059 -90.0374 136° Southeast  Level FlightAware Approximate
Mon 08:07:10 AM 54.0167 -89.8333 130° Southeast 530 610 35,000  Level Edmonton Center
Mon 08:08:10 AM 53.9333 -89.6500 128° Southeast 530 610 35,000  Level Edmonton Center
Mon 08:09:10 AM 53.8167 -89.4667 137° Southeast 530 610 35,000  Level Edmonton Center
Mon 08:10:10 AM 53.7167 -89.2667 130° Southeast 530 610 35,000  Level Edmonton Center
Mon 08:12:10 AM 53.5333 -88.9167 131° Southeast 530 610 35,000  Level Edmonton Center
Mon 08:13:10 AM 53.4167 -88.7167 134° Southeast 520 598 35,000  Level Edmonton Center
Mon 08:14:10 AM 53.3167 -88.5333 132° Southeast 520 598 35,000  Level Edmonton Center
Mon 08:15:10 AM 53.2167 -88.3667 135° Southeast 520 598 35,000  Level Edmonton Center
Mon 08:16:10 AM 53.1167 -88.1833 132° Southeast 520 598 35,000  Level Edmonton Center
Mon 08:17:10 AM 53.0167 -88.0167 135° Southeast 520 598 35,000  Level Edmonton Center
Mon 08:19:10 AM 52.8167 -87.6667 133° Southeast 520 598 35,000  Level Edmonton Center
Mon 08:20:10 AM 52.7000 -87.5000 139° Southeast 510 587 35,000  Level Edmonton Center
Mon 08:21:10 AM 52.6167 -87.3333 129° Southeast 520 598 35,000  Level Edmonton Center
Mon 08:22:10 AM 52.5167 -87.1500 132° Southeast 510 587 35,000  Level Edmonton Center
Mon 08:23:10 AM 52.4167 -86.9833 134° Southeast 510 587 35,000  Level Edmonton Center
Mon 08:24:10 AM 52.3167 -86.8333 137° Southeast 510 587 35,000  Level Edmonton Center
Mon 08:25:10 AM 52.2167 -86.6500 132° Southeast 510 587 35,000  Level Edmonton Center
Mon 08:27:10 AM 52.0167 -86.3167 134° Southeast 510 587 35,000  Level Edmonton Center
Mon 08:28:10 AM 51.9167 -86.1667 137° Southeast 510 587 35,000  Level Edmonton Center
Mon 08:29:10 AM 51.8000 -86.0000 139° Southeast 510 587 35,000  Level Edmonton Center
Mon 08:31:10 AM 51.6000 -85.6833 135° Southeast 510 587 35,000 333 Level Edmonton Center
Mon 08:32:10 AM 51.5000 -85.5167 134° Southeast 510 587 36,000 1,000 Climbing Edmonton Center
Mon 08:33:10 AM 51.4000 -85.3667 137° Southeast 500 575 37,000 500 Climbing Edmonton Center
Mon 08:34:10 AM 51.3167 -85.2167 132° Southeast 510 587 37,000  Level Edmonton Center
Mon 08:35:10 AM 51.2000 -85.0333 135° Southeast 510 587 37,000  Level Edmonton Center
Mon 08:37:00 AM 51.0150 -84.7537 136° Southeast  Level FlightAware Approximate
Mon 08:38:10 AM 50.9167 -84.5667 136° Southeast 500 575 37,000  Level Edmonton Center
Mon 08:39:10 AM 50.8167 -84.4333 140° Southeast 500 575 37,000  Level Edmonton Center
Mon 08:41:26 AM 50.6167 -84.1667 140° Southeast 500 575 37,000  Level Toronto Center
Mon 08:42:26 AM 50.5167 -84.0333 140° Southeast 500 575 37,000  Level Toronto Center
Mon 08:43:26 AM 50.4000 -83.8833 141° Southeast 500 575 37,000  Level Toronto Center
Mon 08:44:26 AM 50.3167 -83.7167 128° Southeast 490 564 37,000  Level Toronto Center
Mon 08:45:26 AM 50.2167 -83.5833 140° Southeast 490 564 37,000  Level Toronto Center
Mon 08:46:26 AM 50.1000 -83.4167 137° Southeast 490 564 37,000  Level Toronto Center
Mon 08:47:26 AM 50.0000 -83.2833 139° Southeast 490 564 37,000  Level Toronto Center
Mon 08:49:26 AM 49.8167 -83.0167 137° Southeast 480 552 37,000  Level Toronto Center
Mon 08:50:26 AM 49.7167 -82.8667 136° Southeast 480 552 37,000  Level Toronto Center
Mon 08:52:26 AM 49.5333 -82.6000 137° Southeast 480 552 37,000  Level Toronto Center
Mon 08:53:26 AM 49.4167 -82.4500 140° Southeast 480 552 37,000  Level Toronto Center
Mon 08:54:26 AM 49.3167 -82.3333 143° Southeast 480 552 37,000  Level Toronto Center
Mon 08:56:26 AM 49.0833 -82.1000 147° Southeast 480 552 37,000  Level Toronto Center
Mon 08:57:26 AM 48.9667 -81.9833 147° Southeast 490 564 37,000  Level Toronto Center
Mon 08:58:26 AM 48.8667 -81.8833 147° Southeast 490 564 37,000  Level Toronto Center
Mon 09:00:26 AM 48.6500 -81.6500 145° Southeast 480 552 37,000  Level Toronto Center
Mon 09:01:26 AM 48.5333 -81.5500 150° Southeast 480 552 37,000  Level Toronto Center
Mon 09:02:26 AM 48.4167 -81.4167 143° Southeast 480 552 37,000  Level Toronto Center
Mon 09:04:26 AM 48.2000 -81.2000 146° Southeast 490 564 37,000  Level Toronto Center
Mon 09:06:26 AM 47.9667 -80.9833 148° Southeast 490 564 37,000  Level Toronto Center
Mon 09:07:26 AM 47.8833 -80.8667 137° Southeast 490 564 37,000  Level Toronto Center
Mon 09:08:26 AM 47.7500 -80.7500 150° Southeast 490 564 37,000  Level Toronto Center
Mon 09:10:00 AM 47.5687 -80.5714 148° Southeast  Level FlightAware Approximate
Mon 09:16:12 AM 46.9060 -79.9420 148° Southeast 481 554 37,000  Level FlightAware ADS-B
Mon 09:16:52 AM 46.8290 -79.8700 147° Southeast 482 555 37,000  Level FlightAware ADS-B
Mon 09:17:37 AM 46.7400 -79.7860 147° Southeast 485 558 37,000  Level FlightAware ADS-B
Mon 09:18:17 AM 46.6670 -79.7170 147° Southeast 488 562 37,000  Level FlightAware ADS-B
Mon 09:18:57 AM 46.5900 -79.6460 148° Southeast 488 562 37,000  Level FlightAware ADS-B
Mon 09:19:42 AM 46.5030 -79.5650 147° Southeast 488 562 37,000  Level FlightAware ADS-B
Mon 09:20:22 AM 46.4290 -79.4960 147° Southeast 488 562 37,000  Level FlightAware ADS-B
Mon 09:21:07 AM 46.3430 -79.4130 146° Southeast 489 563 37,000  Level FlightAware ADS-B
Mon 09:21:47 AM 46.2710 -79.3370 144° Southeast 492 566 37,000  Level FlightAware ADS-B
Mon 09:22:32 AM 46.1870 -79.2460 143° Southeast 492 566 37,000  Level FlightAware ADS-B
Mon 09:23:12 AM 46.1210 -79.1740 143° Southeast 491 565 37,000  Level FlightAware ADS-B
Mon 09:23:52 AM 46.0430 -79.0910 144° Southeast 489 563 37,000  Level FlightAware ADS-B
Mon 09:24:37 AM 45.9640 -79.0070 144° Southeast 487 560 37,000  Level FlightAware ADS-B
Mon 09:25:17 AM 45.8900 -78.9280 143° Southeast 486 559 37,000  Level FlightAware ADS-B
Mon 09:26:02 AM 45.8070 -78.8410 144° Southeast 486 559 37,000  Level FlightAware ADS-B
Mon 09:26:42 AM 45.7360 -78.7660 144° Southeast 485 558 37,000  Level FlightAware ADS-B
Mon 09:27:22 AM 45.6650 -78.6920 144° Southeast 486 559 37,000  Level FlightAware ADS-B
Mon 09:28:07 AM 45.5820 -78.6050 144° Southeast 487 560 37,000  Level FlightAware ADS-B
Mon 09:28:47 AM 45.5100 -78.5300 144° Southeast 488 562 37,000  Level FlightAware ADS-B
Mon 09:29:27 AM 45.4360 -78.4530 144° Southeast 486 559 37,000  Level FlightAware ADS-B
Mon 09:30:12 AM 45.3540 -78.3680 144° Southeast 484 557 37,000  Level FlightAware ADS-B
Mon 09:30:52 AM 45.2820 -78.2940 144° Southeast 483 556 37,000  Level FlightAware ADS-B
Mon 09:31:37 AM 45.2010 -78.2110 144° Southeast 484 557 37,000  Level FlightAware ADS-B
Mon 09:32:17 AM 45.1300 -78.1370 144° Southeast 486 559 37,000  Level FlightAware ADS-B
Mon 09:33:02 AM 45.0460 -78.0520 144° Southeast 486 559 37,000  Level FlightAware ADS-B
Mon 09:33:42 AM 44.9750 -77.9790 144° Southeast 484 557 37,000  Level FlightAware ADS-B
Mon 09:34:22 AM 44.9020 -77.9050 144° Southeast 485 558 37,000  Level FlightAware ADS-B
Mon 09:35:07 AM 44.8180 -77.8200 144° Southeast 484 557 37,000  Level FlightAware ADS-B
Mon 09:35:47 AM 44.7490 -77.7510 145° Southeast 483 556 37,000  Level FlightAware ADS-B
Mon 09:36:27 AM 44.6740 -77.6760 145° Southeast 483 556 37,000  Level FlightAware ADS-B
Mon 09:37:12 AM 44.5920 -77.5930 144° Southeast 480 552 37,000  Level FlightAware ADS-B
Mon 09:37:52 AM 44.5270 -77.5290 145° Southeast 480 552 37,000  Level FlightAware ADS-B
Mon 09:38:37 AM 44.4380 -77.4400 144° Southeast 480 552 37,000  Level FlightAware ADS-B
Mon 09:39:17 AM 44.3700 -77.3730 145° Southeast 479 551 37,000  Level FlightAware ADS-B
Mon 09:39:57 AM 44.2940 -77.2970 144° Southeast 479 551 37,000  Level FlightAware ADS-B
Mon 09:40:27 AM 44.2410 -77.2450 145° Southeast 477 549 37,000  Level FlightAware ADS-B
Mon 09:41:07 AM 44.1680 -77.1730 145° Southeast 475 547 37,000  Level FlightAware ADS-B
Mon 09:41:52 AM 44.0870 -77.0940 145° Southeast 474 545 37,000  Level FlightAware ADS-B
Mon 09:42:37 AM 44.0090 -77.0180 145° Southeast 474 545 37,000  Level FlightAware ADS-B
Mon 09:43:17 AM 43.9390 -76.9490 145° Southeast 475 547 37,000  Level FlightAware ADS-B
Mon 09:43:57 AM 43.8630 -76.8760 145° Southeast 476 548 37,000  Level FlightAware ADS-B
Mon 09:44:42 AM 43.7830 -76.7980 145° Southeast 476 548 37,000  Level FlightAware ADS-B
Mon 09:45:22 AM 43.7120 -76.7300 145° Southeast 475 547 37,000  Level FlightAware ADS-B
Mon 09:46:02 AM 43.6370 -76.6580 145° Southeast 474 545 37,000  Level FlightAware ADS-B
Mon 09:46:47 AM 43.5560 -76.5800 145° Southeast 474 545 37,000  Level FlightAware ADS-B
Mon 09:47:27 AM 43.4850 -76.5120 145° Southeast 474 545 37,000  Level FlightAware ADS-B
Mon 09:48:07 AM 43.4120 -76.4430 146° Southeast 474 545 37,000  Level FlightAware ADS-B
Mon 09:48:52 AM 43.3340 -76.3680 145° Southeast 474 545 37,000  Level FlightAware ADS-B
Mon 09:49:32 AM 43.2630 -76.3010 145° Southeast 474 545 37,000  Level FlightAware ADS-B
Mon 09:50:17 AM 43.1790 -76.2200 145° Southeast 476 548 37,000  Level FlightAware ADS-B
Mon 09:50:57 AM 43.1180 -76.1410 137° Southeast 481 554 37,000  Level FlightAware ADS-B
Mon 09:51:37 AM 43.0550 -76.0470 133° Southeast 482 555 37,000  Level FlightAware ADS-B
Mon 09:52:22 AM 42.9870 -75.9450 132° Southeast 482 555 37,000  Level FlightAware ADS-B
Mon 09:53:02 AM 42.9300 -75.8590 132° Southeast 482 555 37,000  Level FlightAware ADS-B
Mon 09:53:47 AM 42.8590 -75.7530 132° Southeast 480 552 37,000  Level FlightAware ADS-B
Mon 09:54:32 AM 42.7940 -75.6570 133° Southeast 480 552 37,000  Level FlightAware ADS-B
Mon 09:55:12 AM 42.7320 -75.5660 133° Southeast 479 551 37,000  Level FlightAware ADS-B
Mon 09:55:52 AM 42.6710 -75.4770 133° Southeast 481 554 37,000  Level FlightAware ADS-B
Mon 09:56:37 AM 42.6040 -75.3780 133° Southeast 481 554 37,000  Level FlightAware ADS-B
Mon 09:57:12 AM 42.5540 -75.3060 133° Southeast 481 554 37,000  Level FlightAware ADS-B
Mon 09:57:57 AM 42.4830 -75.2020 133° Southeast 481 554 37,000 -750 Level FlightAware ADS-B
Mon 09:58:32 AM 42.4260 -75.1180 133° Southeast 482 555 36,000 -1,933 Descending FlightAware ADS-B
Mon 09:59:27 AM 42.3490 -75.0080 133° Southeast 488 562 34,100 -2,040 Descending FlightAware ADS-B
Mon 10:00:12 AM 42.2810 -74.9100 133° Southeast 492 566 32,600 -1,000 Descending FlightAware ADS-B
Mon 10:00:57 AM 42.2190 -74.8200 133° Southeast 492 566 32,600  Level FlightAware ADS-B
Mon 10:01:37 AM 42.1670 -74.7440 133° Southeast 492 566 32,600 -2,775 Level FlightAware ADS-B
Mon 10:02:17 AM 42.0840 -74.6270 134° Southeast 463 533 28,900 -3,067 Descending FlightAware ADS-B
Mon 10:03:07 AM 42.0100 -74.5220 133° Southeast 467 537 28,000 -794 Descending FlightAware ADS-B
Mon 10:03:25 AM 41.9822 -74.4792 131° Southeast 475 547 28,000  Level FlightAware ADS-B
Mon 10:04:01 AM 41.9355 -74.3906 125° Southeast 478 550 28,000 -1,163 Level FlightAware ADS-B
Mon 10:05:03 AM 41.8296 -74.2805 142° Southeast 478 550 26,100 -1,829 Descending FlightAware ADS-B
Mon 10:05:23 AM 41.7889 -74.2601 160° South 466 536 25,500 -1,778 Descending FlightAware ADS-B
Mon 10:05:57 AM 41.7202 -74.2269 160° South 460 529 24,500 -1,970 Descending FlightAware ADS-B
Mon 10:06:30 AM 41.6569 -74.1963 160° South 448 516 23,300 -2,095 Descending FlightAware ADS-B
Mon 10:07:00 AM 41.5988 -74.1681 160° South 439 505 22,300 -2,000 Descending FlightAware ADS-B
Mon 10:07:30 AM 41.5420 -74.1404 160° South 432 497 21,300 -1,935 Descending FlightAware ADS-B
Mon 10:08:02 AM 41.4880 -74.1140 160° South 425 489 20,300 -1,500 Descending FlightAware ADS-B
Mon 10:08:22 AM 41.4471 -74.0935 159° South 422 486 20,000 -367 Descending FlightAware ADS-B
Mon 10:08:51 AM 41.3920 -74.0714 163° South 420 483 20,000  Level FlightAware ADS-B
Mon 10:09:02 AM 41.3715 -74.0686 174° South 421 484 20,000  Level FlightAware ADS-B
Mon 10:09:19 AM 41.3389 -74.0704 182° South 422 486 20,000  Level FlightAware ADS-B
Mon 10:09:49 AM 41.2804 -74.0790 186° South 423 487 20,000  Level FlightAware ADS-B
Mon 10:10:19 AM 41.2220 -74.0884 187° South 423 487 20,000  Level FlightAware ADS-B
Mon 10:10:51 AM 41.1607 -74.0981 187° South 422 486 20,000 -381 Level FlightAware ADS-B
Mon 10:11:22 AM 41.1016 -74.1073 187° South 405 466 19,600 -857 Descending FlightAware ADS-B
Mon 10:11:54 AM 41.0445 -74.1158 186° South 383 441 19,100 -857 Descending FlightAware ADS-B
Mon 10:12:04 AM 41.0270 -74.1178 185° South 380 437 19,000 -353 Descending FlightAware ADS-B
Mon 10:12:11 AM 41.0146 -74.1179 180° South 378 435 19,000  Level FlightAware ADS-B
Mon 10:12:19 AM 41.0004 -74.1161 175° South 373 429 19,000  Level FlightAware ADS-B
Mon 10:12:41 AM 40.9646 -74.1062 168° South 376 433 19,000  Level FlightAware ADS-B
Mon 10:12:50 AM 40.9507 -74.1020 167° South 345 397 19,000  Level FlightAware ADS-B
Mon 10:12:53 AM 40.9461 -74.1005 166° South 347 399 19,000 -462 Level FlightAware ADS-B
Mon 10:13:03 AM 40.9304 -74.0935 161° South 332 382 18,900 -706 Descending FlightAware ADS-B
Mon 10:13:10 AM 40.9212 -74.0869 152° Southeast 332 382 18,800 -667 Descending FlightAware ADS-B
Mon 10:13:12 AM 40.9187 -74.0845 144° Southeast 327 376 18,800 -1,000 Level FlightAware ADS-B
Mon 10:13:16 AM 40.9141 -74.0798 142° Southeast 326 375 18,700 -1,273 Descending FlightAware ADS-B
Mon 10:13:45 AM 40.8831 -74.0419 137° Southeast 321 369 18,100 -1,313 Descending FlightAware ADS-B
Mon 10:13:48 AM 40.8792 -74.0372 138° Southeast 321 369 18,000 -1,400 Descending FlightAware ADS-B
Mon 10:14:15 AM 40.8501 -74.0014 137° Southeast 318 366 17,400 -1,412 Descending FlightAware ADS-B
Mon 10:14:22 AM 40.8426 -73.9922 137° Southeast 318 366 17,200 -1,400 Descending FlightAware ADS-B
Mon 10:14:45 AM 40.8180 -73.9613 136° Southeast 315 362 16,700 -1,455 Descending FlightAware ADS-B
Mon 10:14:55 AM 40.8078 -73.9485 136° Southeast 315 362 16,400 -1,355 Descending FlightAware ADS-B
Mon 10:15:16 AM 40.7852 -73.9204 137° Southeast 313 360 16,000 -1,269 Descending FlightAware ADS-B
Mon 10:15:47 AM 40.7532 -73.8811 137° Southeast 309 356 15,300 -1,292 Descending FlightAware ADS-B
Mon 10:16:21 AM 40.7171 -73.8379 138° Southeast 302 348 14,600 -1,636 Descending FlightAware ADS-B
Mon 10:16:53 AM 40.6850 -73.7993 138° Southeast 297 342 13,500 -2,118 Descending FlightAware ADS-B
Mon 10:17:12 AM 40.6658 -73.7754 137° Southeast 292 336 12,800 -2,571 Descending FlightAware ADS-B
Mon 10:17:49 AM 40.6207 -73.7521 159° South 286 329 11,100 -2,687 Descending FlightAware ADS-B
Mon 10:18:19 AM 40.5824 -73.7420 169° South 283 326 9,800 -2,478 Descending FlightAware ADS-B
Mon 10:18:35 AM 40.5624 -73.7364 168° South 281 323 9,200 -1,935 Descending FlightAware ADS-B
Mon 10:18:50 AM 40.5429 -73.7306 167° South 280 322 8,800 -1,273 Descending FlightAware ADS-B
Mon 10:19:08 AM 40.5208 -73.7236 166° South 277 319 8,500 -1,091 Descending FlightAware ADS-B
Mon 10:19:23 AM 40.5019 -73.7173 166° South 275 316 8,200 -1,161 Descending FlightAware ADS-B
Mon 10:19:39 AM 40.4828 -73.7107 165° South 274 315 7,900 -1,135 Descending FlightAware ADS-B
Mon 10:20:00 AM 40.4570 -73.7017 165° South 271 312 7,500 -1,297 Descending FlightAware ADS-B
Mon 10:20:16 AM 40.4374 -73.6949 165° South 273 314 7,100 -1,440 Descending FlightAware ADS-B
Mon 10:20:25 AM 40.4267 -73.6925 170° South 272 313 6,900 -1,286 Descending FlightAware ADS-B
Mon 10:20:30 AM 40.4205 -73.6926 181° South 272 313 6,800 -1,500 Descending FlightAware ADS-B
Mon 10:20:37 AM 40.4115 -73.6951 192° South 271 312 6,600 -1,800 Descending FlightAware ADS-B
Mon 10:20:40 AM 40.4079 -73.6968 200° South 271 312 6,500 -1,000 Descending FlightAware ADS-B
Mon 10:20:49 AM 40.3975 -73.7030 204° Southwest 270 311 6,400 -1,000 Descending FlightAware ADS-B
Mon 10:20:52 AM 40.3942 -73.7053 208° Southwest 270 311 6,300 -1,263 Descending FlightAware ADS-B
Mon 10:21:08 AM 40.3762 -73.7173 207° Southwest 268 308 6,000 -1,091 Descending FlightAware ADS-B
Mon 10:21:25 AM 40.3580 -73.7293 207° Southwest 265 305 5,700 -1,125 Descending FlightAware ADS-B
Mon 10:21:40 AM 40.3411 -73.7404 207° Southwest 263 303 5,400 -1,200 Descending FlightAware ADS-B
Mon 10:22:00 AM 40.3196 -73.7545 207° Southwest 261 300 5,000 -1,167 Descending FlightAware ADS-B
Mon 10:22:16 AM 40.3023 -73.7663 207° Southwest 260 299 4,700 -1,200 Descending FlightAware ADS-B
Mon 10:22:20 AM 40.2992 -73.7689 213° Southwest 258 297 4,600 -1,333 Descending FlightAware ADS-B
Mon 10:22:25 AM 40.2943 -73.7744 221° Southwest 257 296 4,500 -750 Descending FlightAware ADS-B
Mon 10:22:28 AM 40.2917 -73.7784 230° Southwest 255 293 4,500  Level FlightAware ADS-B
Mon 10:22:33 AM 40.2885 -73.7846 236° Southwest 254 292 4,500  Level FlightAware ADS-B
Mon 10:22:43 AM 40.2849 -73.7983 251° West 250 288 4,500 -316 Level FlightAware ADS-B
Mon 10:22:52 AM 40.2846 -73.8116 268° West 248 285 4,400 -800 Descending FlightAware ADS-B
Mon 10:22:58 AM 40.2861 -73.8204 283° West 249 287 4,300 -1,000 Descending FlightAware ADS-B
Mon 10:23:04 AM 40.2890 -73.8291 294° West 250 288 4,200 -667 Descending FlightAware ADS-B
Mon 10:23:07 AM 40.2908 -73.8334 299° West 248 285 4,200 -571 Level FlightAware ADS-B
Mon 10:23:25 AM 40.3009 -73.8564 300° West 244 281 4,000 -706 Descending FlightAware ADS-B
Mon 10:23:41 AM 40.3099 -73.8766 300° West 238 274 3,800 -828 Descending FlightAware ADS-B
Mon 10:23:54 AM 40.3194 -73.8896 314° West 239 275 3,600 -1,091 Descending FlightAware ADS-B
Mon 10:24:03 AM 40.3273 -73.8966 326° Northwest 238 274 3,400 -1,250 Descending FlightAware ADS-B
Mon 10:24:18 AM 40.3416 -73.9084 328° Northwest 238 274 3,100 -1,167 Descending FlightAware ADS-B
Mon 10:24:39 AM 40.3613 -73.9249 327° Northwest 241 277 2,700 -585 Descending FlightAware ADS-B
Mon 10:24:59 AM 40.3817 -73.9425 327° Northwest 260 299 2,700  Level FlightAware ADS-B
Mon 10:25:15 AM 40.3978 -73.9562 327° Northwest 264 304 2,700  Level FlightAware ADS-B
Mon 10:25:34 AM 40.4167 -73.9725 327° Northwest 260 299 2,700  Level FlightAware ADS-B
Mon 10:25:55 AM 40.4372 -73.9903 327° Northwest 246 283 2,700  Level FlightAware ADS-B
Mon 10:26:42 AM 40.4800 -73.9950 355° North 208 239 2,700  Level FlightAware ADS-B
Mon 10:27:07 AM 40.4990 -73.9850 22° Northeast 194 223 2,700  Level FlightAware ADS-B
Mon 10:27:22 AM 40.5110 -73.9770 27° Northeast 191 220 2,700 -133 Level FlightAware ADS-B
Mon 10:27:52 AM 40.5350 -73.9590 30° Northeast 173 199 2,600 -480 Descending FlightAware ADS-B
Mon 10:28:12 AM 40.5450 -73.9500 34° Northeast 169 194 2,300 -1,091 Descending FlightAware ADS-B
Mon 10:28:47 AM 40.5710 -73.9280 33° Northeast 167 192 1,600 -1,200 Descending FlightAware ADS-B
Mon 10:29:02 AM 40.5810 -73.9200 31° Northeast 164 189 1,300 -600 Descending FlightAware ADS-B
Mon 10:29:27 AM 40.5960 -73.9080 31° Northeast 145 167 1,200 -109 Descending FlightAware ADS-B
Mon 10:29:57 AM 40.6130 -73.8940 32° Northeast 140 161 1,200 -100 Level FlightAware ADS-B
Mon 10:30:27 AM 40.6290 -73.8820 30° Northeast 143 165 1,100 -545 Descending FlightAware ADS-B
Mon 10:30:52 AM 40.6440 -73.8690 33° Northeast 141 162 700 -655 Descending FlightAware ADS-B
Mon 10:31:22 AM 40.6590 -73.8510 42° Northeast 144 166 500 -327 Descending FlightAware ADS-B
Mon 10:31:47 AM 40.6650 -73.8320 67° East 141 162 400 -450 Descending FlightAware ADS-B
Mon 10:32:02 AM 40.6670 -73.8210 77° East 142 163 200 -800 Descending FlightAware ADS-B
Mon 10:32:32 AM 40.6600 -73.7950 110° East 145 167 -400 Descending FlightAware ADS-B

Login

Don't have an account? Register now (free) for customized features, flight alerts, and more!